sensor_id;sensor_type;location;lat;lon;timestamp;temperature;humidity
7572;DHT22;3827;49.928;8.548;2023-06-10T00:01:37;18.10;99.90
7572;DHT22;3827;49.928;8.548;2023-06-10T00:04:04;18.10;99.90
7572;DHT22;3827;49.928;8.548;2023-06-10T00:06:31;18.00;99.90
7572;DHT22;3827;49.928;8.548;2023-06-10T00:09:01;18.00;99.90
7572;DHT22;3827;49.928;8.548;2023-06-10T00:11:30;17.90;99.90
7572;DHT22;3827;49.928;8.548;2023-06-10T00:13:58;17.90;99.90
7572;DHT22;3827;49.928;8.548;2023-06-10T00:16:25;17.90;99.90
7572;DHT22;3827;49.928;8.548;2023-06-10T00:18:52;17.90;99.90
7572;DHT22;3827;49.928;8.548;2023-06-10T00:21:21;17.80;99.90
7572;DHT22;3827;49.928;8.548;2023-06-10T00:23:50;17.80;99.90
7572;DHT22;3827;49.928;8.548;2023-06-10T00:26:17;17.90;99.90
7572;DHT22;3827;49.928;8.548;2023-06-10T00:28:43;17.80;99.90
7572;DHT22;3827;49.928;8.548;2023-06-10T00:31:12;17.70;99.90
7572;DHT22;3827;49.928;8.548;2023-06-10T00:33:39;17.70;99.90
7572;DHT22;3827;49.928;8.548;2023-06-10T00:36:06;17.60;99.90
7572;DHT22;3827;49.928;8.548;2023-06-10T00:38:33;17.60;99.90
7572;DHT22;3827;49.928;8.548;2023-06-10T00:41:00;17.50;99.90
7572;DHT22;3827;49.928;8.548;2023-06-10T00:43:26;17.50;99.90
7572;DHT22;3827;49.928;8.548;2023-06-10T00:45:53;17.40;99.90
7572;DHT22;3827;49.928;8.548;2023-06-10T00:48:21;17.40;99.90
7572;DHT22;3827;49.928;8.548;2023-06-10T00:50:48;17.40;99.90
7572;DHT22;3827;49.928;8.548;2023-06-10T00:53:16;17.40;99.90
7572;DHT22;3827;49.928;8.548;2023-06-10T00:55:43;17.30;99.90
7572;DHT22;3827;49.928;8.548;2023-06-10T00:58:10;17.30;99.90
7572;DHT22;3827;49.928;8.548;2023-06-10T01:00:38;17.30;99.90
7572;DHT22;3827;49.928;8.548;2023-06-10T01:03:05;17.30;99.90
7572;DHT22;3827;49.928;8.548;2023-06-10T01:05:34;17.30;99.90
7572;DHT22;3827;49.928;8.548;2023-06-10T01:08:09;17.20;99.90
7572;DHT22;3827;49.928;8.548;2023-06-10T01:10:41;17.20;99.90
7572;DHT22;3827;49.928;8.548;2023-06-10T01:13:10;17.20;99.90
7572;DHT22;3827;49.928;8.548;2023-06-10T01:15:38;17.20;99.90
7572;DHT22;3827;49.928;8.548;2023-06-10T01:18:06;17.10;99.90
7572;DHT22;3827;49.928;8.548;2023-06-10T01:20:38;17.10;99.90
7572;DHT22;3827;49.928;8.548;2023-06-10T01:23:07;17.10;99.90
7572;DHT22;3827;49.928;8.548;2023-06-10T01:25:38;17.10;99.90
7572;DHT22;3827;49.928;8.548;2023-06-10T01:28:11;17.10;99.90
7572;DHT22;3827;49.928;8.548;2023-06-10T01:30:50;17.10;99.90
7572;DHT22;3827;49.928;8.548;2023-06-10T01:33:26;17.00;99.90
7572;DHT22;3827;49.928;8.548;2023-06-10T01:35:54;17.00;99.90
7572;DHT22;3827;49.928;8.548;2023-06-10T01:38:24;16.90;99.90
7572;DHT22;3827;49.928;8.548;2023-06-10T01:40:52;16.90;99.90
7572;DHT22;3827;49.928;8.548;2023-06-10T01:43:20;16.90;99.90
7572;DHT22;3827;49.928;8.548;2023-06-10T01:45:47;16.80;99.90
7572;DHT22;3827;49.928;8.548;2023-06-10T01:48:14;16.80;99.90
7572;DHT22;3827;49.928;8.548;2023-06-10T01:50:41;16.90;99.90
7572;DHT22;3827;49.928;8.548;2023-06-10T01:53:09;16.70;99.90
7572;DHT22;3827;49.928;8.548;2023-06-10T01:55:37;16.70;99.90
7572;DHT22;3827;49.928;8.548;2023-06-10T01:58:04;16.70;99.90
7572;DHT22;3827;49.928;8.548;2023-06-10T02:00:31;16.60;99.90
7572;DHT22;3827;49.928;8.548;2023-06-10T02:02:57;16.60;99.90
7572;DHT22;3827;49.928;8.548;2023-06-10T02:05:24;16.60;99.90
7572;DHT22;3827;49.928;8.548;2023-06-10T02:07:51;16.50;99.90
7572;DHT22;3827;49.928;8.548;2023-06-10T02:10:18;16.50;99.90
7572;DHT22;3827;49.928;8.548;2023-06-10T02:12:46;16.40;99.90
7572;DHT22;3827;49.928;8.548;2023-06-10T02:15:13;16.40;99.90
7572;DHT22;3827;49.928;8.548;2023-06-10T02:17:40;16.40;99.90
7572;DHT22;3827;49.928;8.548;2023-06-10T02:20:07;16.30;99.90
7572;DHT22;3827;49.928;8.548;2023-06-10T02:22:37;16.30;99.90
7572;DHT22;3827;49.928;8.548;2023-06-10T02:25:05;16.30;99.90
7572;DHT22;3827;49.928;8.548;2023-06-10T02:27:31;16.30;99.90
7572;DHT22;3827;49.928;8.548;2023-06-10T02:30:00;16.20;99.90
7572;DHT22;3827;49.928;8.548;2023-06-10T02:32:27;16.20;99.90
7572;DHT22;3827;49.928;8.548;2023-06-10T02:34:53;16.20;99.90
7572;DHT22;3827;49.928;8.548;2023-06-10T02:37:20;16.20;99.90
7572;DHT22;3827;49.928;8.548;2023-06-10T02:39:47;16.10;99.90
7572;DHT22;3827;49.928;8.548;2023-06-10T02:42:14;16.10;99.90
7572;DHT22;3827;49.928;8.548;2023-06-10T02:44:41;16.10;99.90
7572;DHT22;3827;49.928;8.548;2023-06-10T02:47:09;16.00;99.90
7572;DHT22;3827;49.928;8.548;2023-06-10T02:49:36;16.00;99.90
7572;DHT22;3827;49.928;8.548;2023-06-10T02:52:03;15.90;99.90
7572;DHT22;3827;49.928;8.548;2023-06-10T02:54:30;15.90;99.90
7572;DHT22;3827;49.928;8.548;2023-06-10T02:56:56;15.90;99.90
7572;DHT22;3827;49.928;8.548;2023-06-10T02:59:23;15.80;99.90
7572;DHT22;3827;49.928;8.548;2023-06-10T03:01:52;15.80;99.90
7572;DHT22;3827;49.928;8.548;2023-06-10T03:04:20;15.80;99.90
7572;DHT22;3827;49.928;8.548;2023-06-10T03:06:49;15.80;99.90
7572;DHT22;3827;49.928;8.548;2023-06-10T03:09:15;15.80;99.90
7572;DHT22;3827;49.928;8.548;2023-06-10T03:11:42;15.70;99.90
7572;DHT22;3827;49.928;8.548;2023-06-10T03:14:09;15.80;99.90
7572;DHT22;3827;49.928;8.548;2023-06-10T03:16:36;15.80;99.90
7572;DHT22;3827;49.928;8.548;2023-06-10T03:19:05;15.80;99.90
7572;DHT22;3827;49.928;8.548;2023-06-10T03:21:34;15.80;99.90
7572;DHT22;3827;49.928;8.548;2023-06-10T03:24:03;15.80;99.90
7572;DHT22;3827;49.928;8.548;2023-06-10T03:26:29;15.80;99.90
7572;DHT22;3827;49.928;8.548;2023-06-10T03:28:56;15.70;99.90
7572;DHT22;3827;49.928;8.548;2023-06-10T03:31:23;15.70;99.90
7572;DHT22;3827;49.928;8.548;2023-06-10T03:33:51;15.70;99.90
7572;DHT22;3827;49.928;8.548;2023-06-10T03:36:18;15.80;99.90
7572;DHT22;3827;49.928;8.548;2023-06-10T03:38:46;15.70;99.90
7572;DHT22;3827;49.928;8.548;2023-06-10T03:41:12;15.70;99.90
7572;DHT22;3827;49.928;8.548;2023-06-10T03:43:40;15.70;99.90
7572;DHT22;3827;49.928;8.548;2023-06-10T03:46:07;15.70;99.90
7572;DHT22;3827;49.928;8.548;2023-06-10T03:48:34;15.70;99.90
7572;DHT22;3827;49.928;8.548;2023-06-10T03:51:01;15.70;99.90
7572;DHT22;3827;49.928;8.548;2023-06-10T03:53:28;15.80;99.90
7572;DHT22;3827;49.928;8.548;2023-06-10T03:55:56;15.70;99.90
7572;DHT22;3827;49.928;8.548;2023-06-10T03:58:23;15.70;99.90
7572;DHT22;3827;49.928;8.548;2023-06-10T04:00:51;15.80;99.90
7572;DHT22;3827;49.928;8.548;2023-06-10T04:03:18;15.80;99.90
7572;DHT22;3827;49.928;8.548;2023-06-10T04:05:46;15.80;99.90
7572;DHT22;3827;49.928;8.548;2023-06-10T04:08:15;15.80;99.90
7572;DHT22;3827;49.928;8.548;2023-06-10T04:10:42;15.80;99.90
7572;DHT22;3827;49.928;8.548;2023-06-10T04:13:10;15.90;99.90
7572;DHT22;3827;49.928;8.548;2023-06-10T04:15:37;15.90;99.90
7572;DHT22;3827;49.928;8.548;2023-06-10T04:18:04;16.20;99.90
7572;DHT22;3827;49.928;8.548;2023-06-10T04:20:31;16.00;99.90
7572;DHT22;3827;49.928;8.548;2023-06-10T04:22:58;16.10;99.90
7572;DHT22;3827;49.928;8.548;2023-06-10T04:25:25;16.10;99.90
7572;DHT22;3827;49.928;8.548;2023-06-10T04:27:52;16.10;99.90
7572;DHT22;3827;49.928;8.548;2023-06-10T04:30:21;16.20;99.90
7572;DHT22;3827;49.928;8.548;2023-06-10T04:32:47;16.20;99.90
7572;DHT22;3827;49.928;8.548;2023-06-10T04:35:15;16.30;99.90
7572;DHT22;3827;49.928;8.548;2023-06-10T04:37:42;16.30;99.90
7572;DHT22;3827;49.928;8.548;2023-06-10T04:40:09;16.40;99.90
7572;DHT22;3827;49.928;8.548;2023-06-10T04:42:36;16.40;99.90
7572;DHT22;3827;49.928;8.548;2023-06-10T04:45:04;16.40;99.90
7572;DHT22;3827;49.928;8.548;2023-06-10T04:47:32;16.50;99.90
7572;DHT22;3827;49.928;8.548;2023-06-10T04:49:59;16.60;99.90
7572;DHT22;3827;49.928;8.548;2023-06-10T04:52:26;16.60;99.90
7572;DHT22;3827;49.928;8.548;2023-06-10T04:54:53;16.60;99.90
7572;DHT22;3827;49.928;8.548;2023-06-10T04:57:20;16.70;99.90
7572;DHT22;3827;49.928;8.548;2023-06-10T04:59:47;16.80;99.90
7572;DHT22;3827;49.928;8.548;2023-06-10T05:02:14;17.00;99.90
7572;DHT22;3827;49.928;8.548;2023-06-10T05:04:42;17.00;99.90
7572;DHT22;3827;49.928;8.548;2023-06-10T05:07:08;17.10;99.90
7572;DHT22;3827;49.928;8.548;2023-06-10T05:09:35;17.20;99.90
7572;DHT22;3827;49.928;8.548;2023-06-10T05:12:03;17.30;99.90
7572;DHT22;3827;49.928;8.548;2023-06-10T05:14:29;17.30;99.90
7572;DHT22;3827;49.928;8.548;2023-06-10T05:16:56;17.30;99.90
7572;DHT22;3827;49.928;8.548;2023-06-10T05:19:23;17.40;99.90
7572;DHT22;3827;49.928;8.548;2023-06-10T05:21:52;17.50;99.90
7572;DHT22;3827;49.928;8.548;2023-06-10T05:24:18;17.60;99.90
7572;DHT22;3827;49.928;8.548;2023-06-10T05:26:46;17.70;99.90
7572;DHT22;3827;49.928;8.548;2023-06-10T05:29:14;17.80;99.90
7572;DHT22;3827;49.928;8.548;2023-06-10T05:31:41;17.90;99.90
7572;DHT22;3827;49.928;8.548;2023-06-10T05:34:08;18.00;99.90
7572;DHT22;3827;49.928;8.548;2023-06-10T05:36:35;18.10;99.90
7572;DHT22;3827;49.928;8.548;2023-06-10T05:39:03;18.20;99.90
7572;DHT22;3827;49.928;8.548;2023-06-10T05:41:30;18.30;99.90
7572;DHT22;3827;49.928;8.548;2023-06-10T05:43:57;18.40;99.90
7572;DHT22;3827;49.928;8.548;2023-06-10T05:46:23;18.50;99.90
7572;DHT22;3827;49.928;8.548;2023-06-10T05:48:50;18.60;99.90
7572;DHT22;3827;49.928;8.548;2023-06-10T05:51:17;18.70;99.90
7572;DHT22;3827;49.928;8.548;2023-06-10T05:53:44;18.80;99.90
7572;DHT22;3827;49.928;8.548;2023-06-10T05:56:13;18.90;99.90
7572;DHT22;3827;49.928;8.548;2023-06-10T05:58:40;19.10;99.90
7572;DHT22;3827;49.928;8.548;2023-06-10T06:01:06;19.30;99.90
7572;DHT22;3827;49.928;8.548;2023-06-10T06:03:33;19.30;99.90
7572;DHT22;3827;49.928;8.548;2023-06-10T06:06:00;19.40;99.90
7572;DHT22;3827;49.928;8.548;2023-06-10T06:08:27;19.50;99.90
7572;DHT22;3827;49.928;8.548;2023-06-10T06:10:54;19.60;99.90
7572;DHT22;3827;49.928;8.548;2023-06-10T06:13:22;19.80;99.90
7572;DHT22;3827;49.928;8.548;2023-06-10T06:15:49;19.90;99.90
7572;DHT22;3827;49.928;8.548;2023-06-10T06:18:16;20.00;99.90
7572;DHT22;3827;49.928;8.548;2023-06-10T06:20:43;20.10;99.90
7572;DHT22;3827;49.928;8.548;2023-06-10T06:23:10;20.20;99.90
7572;DHT22;3827;49.928;8.548;2023-06-10T06:25:37;20.30;99.90
7572;DHT22;3827;49.928;8.548;2023-06-10T06:28:05;20.40;99.90
7572;DHT22;3827;49.928;8.548;2023-06-10T06:30:33;20.50;99.90
7572;DHT22;3827;49.928;8.548;2023-06-10T06:33:00;20.60;99.90
7572;DHT22;3827;49.928;8.548;2023-06-10T06:35:27;20.80;99.90
7572;DHT22;3827;49.928;8.548;2023-06-10T06:37:54;20.90;99.90
7572;DHT22;3827;49.928;8.548;2023-06-10T06:40:20;21.00;99.90
7572;DHT22;3827;49.928;8.548;2023-06-10T06:42:47;21.10;99.90
7572;DHT22;3827;49.928;8.548;2023-06-10T06:45:14;21.20;99.90
7572;DHT22;3827;49.928;8.548;2023-06-10T06:47:42;21.40;99.90
7572;DHT22;3827;49.928;8.548;2023-06-10T06:50:09;21.40;99.90
7572;DHT22;3827;49.928;8.548;2023-06-10T06:52:36;21.50;99.90
7572;DHT22;3827;49.928;8.548;2023-06-10T06:55:04;21.50;99.90
7572;DHT22;3827;49.928;8.548;2023-06-10T06:57:32;21.60;99.90
7572;DHT22;3827;49.928;8.548;2023-06-10T06:59:59;21.90;99.90
7572;DHT22;3827;49.928;8.548;2023-06-10T07:02:25;21.70;99.90
7572;DHT22;3827;49.928;8.548;2023-06-10T07:04:54;21.90;99.90
7572;DHT22;3827;49.928;8.548;2023-06-10T07:07:21;21.90;99.90
7572;DHT22;3827;49.928;8.548;2023-06-10T07:09:48;22.00;99.90
7572;DHT22;3827;49.928;8.548;2023-06-10T07:12:15;22.10;99.90
7572;DHT22;3827;49.928;8.548;2023-06-10T07:14:43;22.30;99.90
7572;DHT22;3827;49.928;8.548;2023-06-10T07:17:10;22.40;99.90
7572;DHT22;3827;49.928;8.548;2023-06-10T07:19:37;22.50;99.90
7572;DHT22;3827;49.928;8.548;2023-06-10T07:22:05;22.50;99.90
7572;DHT22;3827;49.928;8.548;2023-06-10T07:24:32;22.60;99.90
7572;DHT22;3827;49.928;8.548;2023-06-10T07:26:59;22.70;99.90
7572;DHT22;3827;49.928;8.548;2023-06-10T07:29:26;22.70;99.90
7572;DHT22;3827;49.928;8.548;2023-06-10T07:31:53;22.90;99.90
7572;DHT22;3827;49.928;8.548;2023-06-10T07:34:20;23.10;99.90
7572;DHT22;3827;49.928;8.548;2023-06-10T07:36:46;23.10;99.90
7572;DHT22;3827;49.928;8.548;2023-06-10T07:39:15;23.20;99.90
7572;DHT22;3827;49.928;8.548;2023-06-10T07:41:41;23.30;99.90
7572;DHT22;3827;49.928;8.548;2023-06-10T07:44:08;23.30;99.90
7572;DHT22;3827;49.928;8.548;2023-06-10T07:46:35;23.50;99.90
7572;DHT22;3827;49.928;8.548;2023-06-10T07:49:02;23.70;99.90
7572;DHT22;3827;49.928;8.548;2023-06-10T07:51:29;24.00;99.90
7572;DHT22;3827;49.928;8.548;2023-06-10T07:53:55;24.20;99.90
7572;DHT22;3827;49.928;8.548;2023-06-10T07:56:24;24.30;99.90
7572;DHT22;3827;49.928;8.548;2023-06-10T07:58:51;24.50;99.90
7572;DHT22;3827;49.928;8.548;2023-06-10T08:01:18;24.70;99.90
7572;DHT22;3827;49.928;8.548;2023-06-10T08:03:45;24.80;99.90
7572;DHT22;3827;49.928;8.548;2023-06-10T08:06:12;24.90;99.90
7572;DHT22;3827;49.928;8.548;2023-06-10T08:08:39;24.80;99.90
7572;DHT22;3827;49.928;8.548;2023-06-10T08:11:08;24.80;99.90
7572;DHT22;3827;49.928;8.548;2023-06-10T08:13:37;24.80;99.90
7572;DHT22;3827;49.928;8.548;2023-06-10T08:16:04;25.00;99.90
7572;DHT22;3827;49.928;8.548;2023-06-10T08:18:31;25.20;99.90
7572;DHT22;3827;49.928;8.548;2023-06-10T08:20:58;25.00;99.90
7572;DHT22;3827;49.928;8.548;2023-06-10T08:23:24;24.90;99.90
7572;DHT22;3827;49.928;8.548;2023-06-10T08:25:51;25.10;99.90
7572;DHT22;3827;49.928;8.548;2023-06-10T08:28:18;25.40;99.90
7572;DHT22;3827;49.928;8.548;2023-06-10T08:30:46;25.60;99.90
7572;DHT22;3827;49.928;8.548;2023-06-10T08:33:13;25.80;99.90
7572;DHT22;3827;49.928;8.548;2023-06-10T08:35:40;26.00;99.90
7572;DHT22;3827;49.928;8.548;2023-06-10T08:38:06;26.10;99.90
7572;DHT22;3827;49.928;8.548;2023-06-10T08:40:33;26.20;99.90
7572;DHT22;3827;49.928;8.548;2023-06-10T08:43:05;26.60;99.90
7572;DHT22;3827;49.928;8.548;2023-06-10T08:45:32;26.80;99.90
7572;DHT22;3827;49.928;8.548;2023-06-10T08:48:03;27.00;99.90
7572;DHT22;3827;49.928;8.548;2023-06-10T08:50:33;27.10;99.90
7572;DHT22;3827;49.928;8.548;2023-06-10T08:53:02;27.00;99.90
7572;DHT22;3827;49.928;8.548;2023-06-10T08:55:32;27.30;99.90
7572;DHT22;3827;49.928;8.548;2023-06-10T08:57:59;27.40;99.90
7572;DHT22;3827;49.928;8.548;2023-06-10T09:00:27;27.60;99.90
7572;DHT22;3827;49.928;8.548;2023-06-10T09:02:55;27.40;99.90
7572;DHT22;3827;49.928;8.548;2023-06-10T09:05:23;27.50;99.90
7572;DHT22;3827;49.928;8.548;2023-06-10T09:07:52;27.80;99.90
7572;DHT22;3827;49.928;8.548;2023-06-10T09:10:19;28.00;99.90
7572;DHT22;3827;49.928;8.548;2023-06-10T09:12:46;28.30;99.90
7572;DHT22;3827;49.928;8.548;2023-06-10T09:15:13;27.80;99.90
7572;DHT22;3827;49.928;8.548;2023-06-10T09:17:43;27.80;99.90
7572;DHT22;3827;49.928;8.548;2023-06-10T09:20:10;28.00;99.90
7572;DHT22;3827;49.928;8.548;2023-06-10T09:22:40;28.60;99.90
7572;DHT22;3827;49.928;8.548;2023-06-10T09:25:08;28.70;99.90
7572;DHT22;3827;49.928;8.548;2023-06-10T09:27:45;28.90;99.90
7572;DHT22;3827;49.928;8.548;2023-06-10T09:30:24;29.50;99.90
7572;DHT22;3827;49.928;8.548;2023-06-10T09:32:53;29.60;99.90
7572;DHT22;3827;49.928;8.548;2023-06-10T09:35:21;29.10;99.90
7572;DHT22;3827;49.928;8.548;2023-06-10T09:37:51;29.30;99.90
7572;DHT22;3827;49.928;8.548;2023-06-10T09:40:18;29.30;99.90
7572;DHT22;3827;49.928;8.548;2023-06-10T09:42:45;29.70;99.90
7572;DHT22;3827;49.928;8.548;2023-06-10T09:45:14;30.10;99.90
7572;DHT22;3827;49.928;8.548;2023-06-10T09:47:41;30.00;99.90
7572;DHT22;3827;49.928;8.548;2023-06-10T09:50:09;30.20;99.90
7572;DHT22;3827;49.928;8.548;2023-06-10T09:52:37;30.40;99.90
7572;DHT22;3827;49.928;8.548;2023-06-10T09:55:08;30.10;99.90
7572;DHT22;3827;49.928;8.548;2023-06-10T09:57:36;30.20;99.90
7572;DHT22;3827;49.928;8.548;2023-06-10T10:00:05;30.30;99.90
7572;DHT22;3827;49.928;8.548;2023-06-10T10:02:44;30.10;99.90
7572;DHT22;3827;49.928;8.548;2023-06-10T10:05:13;30.20;99.90
7572;DHT22;3827;49.928;8.548;2023-06-10T10:07:40;30.40;99.90
7572;DHT22;3827;49.928;8.548;2023-06-10T10:10:09;30.80;99.90
7572;DHT22;3827;49.928;8.548;2023-06-10T10:12:38;31.20;99.90
7572;DHT22;3827;49.928;8.548;2023-06-10T10:15:06;31.10;99.90
7572;DHT22;3827;49.928;8.548;2023-06-10T10:17:34;31.50;99.90
7572;DHT22;3827;49.928;8.548;2023-06-10T10:20:04;32.20;99.90
7572;DHT22;3827;49.928;8.548;2023-06-10T10:22:37;32.50;99.90
7572;DHT22;3827;49.928;8.548;2023-06-10T10:25:10;32.50;99.90
7572;DHT22;3827;49.928;8.548;2023-06-10T10:27:44;32.60;99.90
7572;DHT22;3827;49.928;8.548;2023-06-10T10:30:14;32.00;99.90
7572;DHT22;3827;49.928;8.548;2023-06-10T10:32:50;32.30;99.90
7572;DHT22;3827;49.928;8.548;2023-06-10T10:35:21;33.20;99.90
7572;DHT22;3827;49.928;8.548;2023-06-10T10:37:49;33.40;99.90
7572;DHT22;3827;49.928;8.548;2023-06-10T10:40:19;32.20;99.90
7572;DHT22;3827;49.928;8.548;2023-06-10T10:42:47;32.40;99.90
7572;DHT22;3827;49.928;8.548;2023-06-10T10:45:15;32.80;99.90
7572;DHT22;3827;49.928;8.548;2023-06-10T10:47:43;32.70;99.90
7572;DHT22;3827;49.928;8.548;2023-06-10T10:50:15;32.80;99.90
7572;DHT22;3827;49.928;8.548;2023-06-10T10:52:53;32.00;99.90
7572;DHT22;3827;49.928;8.548;2023-06-10T10:55:23;31.60;99.90
7572;DHT22;3827;49.928;8.548;2023-06-10T10:58:02;31.10;99.90
7572;DHT22;3827;49.928;8.548;2023-06-10T11:00:30;31.10;99.90
7572;DHT22;3827;49.928;8.548;2023-06-10T11:03:04;31.60;99.90
7572;DHT22;3827;49.928;8.548;2023-06-10T11:05:37;31.90;99.90
7572;DHT22;3827;49.928;8.548;2023-06-10T11:08:05;31.90;99.90
7572;DHT22;3827;49.928;8.548;2023-06-10T11:10:34;32.70;99.90
7572;DHT22;3827;49.928;8.548;2023-06-10T11:13:06;33.30;99.90
7572;DHT22;3827;49.928;8.548;2023-06-10T11:15:33;33.60;99.90
7572;DHT22;3827;49.928;8.548;2023-06-10T11:20:59;34.30;99.90
7572;DHT22;3827;49.928;8.548;2023-06-10T11:23:40;34.40;99.90
7572;DHT22;3827;49.928;8.548;2023-06-10T11:26:16;33.60;99.90
7572;DHT22;3827;49.928;8.548;2023-06-10T11:29:04;33.70;99.90
7572;DHT22;3827;49.928;8.548;2023-06-10T11:31:36;33.50;99.90
7572;DHT22;3827;49.928;8.548;2023-06-10T11:34:05;33.60;99.90
7572;DHT22;3827;49.928;8.548;2023-06-10T11:36:33;33.20;99.90
7572;DHT22;3827;49.928;8.548;2023-06-10T11:39:01;33.80;99.90
7572;DHT22;3827;49.928;8.548;2023-06-10T11:41:31;34.50;99.90
7572;DHT22;3827;49.928;8.548;2023-06-10T11:44:02;35.20;99.90
7572;DHT22;3827;49.928;8.548;2023-06-10T11:46:29;34.90;99.90
7572;DHT22;3827;49.928;8.548;2023-06-10T11:48:57;34.00;99.90
7572;DHT22;3827;49.928;8.548;2023-06-10T11:51:25;34.90;99.90
7572;DHT22;3827;49.928;8.548;2023-06-10T11:53:54;33.30;99.90
7572;DHT22;3827;49.928;8.548;2023-06-10T11:56:22;33.20;99.90
7572;DHT22;3827;49.928;8.548;2023-06-10T11:58:54;33.20;99.90
7572;DHT22;3827;49.928;8.548;2023-06-10T12:01:23;32.80;99.90
7572;DHT22;3827;49.928;8.548;2023-06-10T12:03:57;32.80;99.90
7572;DHT22;3827;49.928;8.548;2023-06-10T12:06:24;31.90;99.90
7572;DHT22;3827;49.928;8.548;2023-06-10T12:08:51;32.30;99.90
7572;DHT22;3827;49.928;8.548;2023-06-10T12:11:18;33.00;99.90
7572;DHT22;3827;49.928;8.548;2023-06-10T12:13:46;33.90;99.90
7572;DHT22;3827;49.928;8.548;2023-06-10T12:16:16;33.90;99.90
7572;DHT22;3827;49.928;8.548;2023-06-10T12:18:44;34.10;99.90
7572;DHT22;3827;49.928;8.548;2023-06-10T12:21:18;34.50;99.90
7572;DHT22;3827;49.928;8.548;2023-06-10T12:24:06;35.10;99.90
7572;DHT22;3827;49.928;8.548;2023-06-10T12:26:41;35.30;99.90
7572;DHT22;3827;49.928;8.548;2023-06-10T12:29:19;34.10;99.90
7572;DHT22;3827;49.928;8.548;2023-06-10T12:31:59;34.00;99.90
7572;DHT22;3827;49.928;8.548;2023-06-10T12:34:37;33.70;99.90
7572;DHT22;3827;49.928;8.548;2023-06-10T12:37:05;33.80;99.90
7572;DHT22;3827;49.928;8.548;2023-06-10T12:39:33;34.60;99.90
7572;DHT22;3827;49.928;8.548;2023-06-10T12:42:01;34.60;99.90
7572;DHT22;3827;49.928;8.548;2023-06-10T12:44:33;33.20;99.90
7572;DHT22;3827;49.928;8.548;2023-06-10T12:47:06;33.50;99.90
7572;DHT22;3827;49.928;8.548;2023-06-10T12:49:33;34.00;99.90
7572;DHT22;3827;49.928;8.548;2023-06-10T12:52:00;33.90;99.90
7572;DHT22;3827;49.928;8.548;2023-06-10T12:54:27;34.40;99.90
7572;DHT22;3827;49.928;8.548;2023-06-10T12:56:54;35.30;99.90
7572;DHT22;3827;49.928;8.548;2023-06-10T12:59:21;35.80;99.90
7572;DHT22;3827;49.928;8.548;2023-06-10T13:01:50;35.60;99.90
7572;DHT22;3827;49.928;8.548;2023-06-10T13:04:19;35.80;99.90
7572;DHT22;3827;49.928;8.548;2023-06-10T13:06:47;36.20;99.90
7572;DHT22;3827;49.928;8.548;2023-06-10T13:09:15;35.60;99.90
7572;DHT22;3827;49.928;8.548;2023-06-10T13:11:42;34.80;99.90
7572;DHT22;3827;49.928;8.548;2023-06-10T13:14:10;35.40;99.90
7572;DHT22;3827;49.928;8.548;2023-06-10T13:16:37;35.70;99.90
7572;DHT22;3827;49.928;8.548;2023-06-10T13:19:05;35.90;99.90
7572;DHT22;3827;49.928;8.548;2023-06-10T13:21:34;36.10;99.90
7572;DHT22;3827;49.928;8.548;2023-06-10T13:24:01;36.40;99.90
7572;DHT22;3827;49.928;8.548;2023-06-10T13:26:28;36.60;99.90
7572;DHT22;3827;49.928;8.548;2023-06-10T13:28:56;35.90;99.90
7572;DHT22;3827;49.928;8.548;2023-06-10T13:31:23;36.50;99.90
7572;DHT22;3827;49.928;8.548;2023-06-10T13:33:49;37.20;99.90
7572;DHT22;3827;49.928;8.548;2023-06-10T13:36:16;36.70;99.90
7572;DHT22;3827;49.928;8.548;2023-06-10T13:38:44;37.20;99.90
7572;DHT22;3827;49.928;8.548;2023-06-10T13:41:13;36.90;99.90
7572;DHT22;3827;49.928;8.548;2023-06-10T13:43:39;37.30;99.90
7572;DHT22;3827;49.928;8.548;2023-06-10T13:46:06;37.70;99.90
7572;DHT22;3827;49.928;8.548;2023-06-10T13:48:33;38.00;99.90
7572;DHT22;3827;49.928;8.548;2023-06-10T13:51:00;37.40;99.90
7572;DHT22;3827;49.928;8.548;2023-06-10T13:53:27;37.10;99.90
7572;DHT22;3827;49.928;8.548;2023-06-10T13:55:55;37.70;99.90
7572;DHT22;3827;49.928;8.548;2023-06-10T13:58:22;38.20;99.90
7572;DHT22;3827;49.928;8.548;2023-06-10T14:00:49;38.60;99.90
7572;DHT22;3827;49.928;8.548;2023-06-10T14:03:16;38.10;99.90
7572;DHT22;3827;49.928;8.548;2023-06-10T14:05:43;37.90;99.90
7572;DHT22;3827;49.928;8.548;2023-06-10T14:08:10;36.20;99.90
7572;DHT22;3827;49.928;8.548;2023-06-10T14:10:37;34.70;99.90
7572;DHT22;3827;49.928;8.548;2023-06-10T14:13:05;33.70;99.90
7572;DHT22;3827;49.928;8.548;2023-06-10T14:15:32;33.60;99.90
7572;DHT22;3827;49.928;8.548;2023-06-10T14:17:59;34.30;99.90
7572;DHT22;3827;49.928;8.548;2023-06-10T14:20:26;34.90;99.90
7572;DHT22;3827;49.928;8.548;2023-06-10T14:22:57;35.30;99.90
7572;DHT22;3827;49.928;8.548;2023-06-10T14:25:23;35.60;99.90
7572;DHT22;3827;49.928;8.548;2023-06-10T14:27:50;35.50;99.90
7572;DHT22;3827;49.928;8.548;2023-06-10T14:30:18;35.80;99.90
7572;DHT22;3827;49.928;8.548;2023-06-10T14:32:45;35.50;99.90
7572;DHT22;3827;49.928;8.548;2023-06-10T14:35:12;35.00;99.90
7572;DHT22;3827;49.928;8.548;2023-06-10T14:37:39;34.90;99.90
7572;DHT22;3827;49.928;8.548;2023-06-10T14:40:07;34.80;99.90
7572;DHT22;3827;49.928;8.548;2023-06-10T14:42:34;35.80;99.90
7572;DHT22;3827;49.928;8.548;2023-06-10T14:45:00;36.20;99.90
7572;DHT22;3827;49.928;8.548;2023-06-10T14:47:29;37.50;99.90
7572;DHT22;3827;49.928;8.548;2023-06-10T14:49:56;37.70;99.90
7572;DHT22;3827;49.928;8.548;2023-06-10T14:52:22;37.70;99.90
7572;DHT22;3827;49.928;8.548;2023-06-10T14:54:49;37.80;99.90
7572;DHT22;3827;49.928;8.548;2023-06-10T14:57:16;37.50;99.90
7572;DHT22;3827;49.928;8.548;2023-06-10T14:59:43;37.70;99.90
7572;DHT22;3827;49.928;8.548;2023-06-10T15:02:10;38.10;99.90
7572;DHT22;3827;49.928;8.548;2023-06-10T15:04:38;38.50;99.90
7572;DHT22;3827;49.928;8.548;2023-06-10T15:07:05;37.70;99.90
7572;DHT22;3827;49.928;8.548;2023-06-10T15:09:32;37.00;99.90
7572;DHT22;3827;49.928;8.548;2023-06-10T15:11:59;36.20;99.90
7572;DHT22;3827;49.928;8.548;2023-06-10T15:14:26;35.60;99.90
7572;DHT22;3827;49.928;8.548;2023-06-10T15:16:53;34.80;99.90
7572;DHT22;3827;49.928;8.548;2023-06-10T15:19:21;34.10;99.90
7572;DHT22;3827;49.928;8.548;2023-06-10T15:21:49;32.80;99.90
7572;DHT22;3827;49.928;8.548;2023-06-10T15:24:16;32.10;99.90
7572;DHT22;3827;49.928;8.548;2023-06-10T15:26:43;31.60;99.90
7572;DHT22;3827;49.928;8.548;2023-06-10T15:29:10;31.60;99.90
7572;DHT22;3827;49.928;8.548;2023-06-10T15:31:36;31.30;99.90
7572;DHT22;3827;49.928;8.548;2023-06-10T15:34:03;31.10;99.90
7572;DHT22;3827;49.928;8.548;2023-06-10T15:36:32;30.90;99.90
7572;DHT22;3827;49.928;8.548;2023-06-10T15:39:04;30.70;99.90
7572;DHT22;3827;49.928;8.548;2023-06-10T15:41:32;30.50;99.90
7572;DHT22;3827;49.928;8.548;2023-06-10T15:43:59;30.40;99.90
7572;DHT22;3827;49.928;8.548;2023-06-10T15:46:26;30.20;99.90
7572;DHT22;3827;49.928;8.548;2023-06-10T15:48:53;30.20;99.90
7572;DHT22;3827;49.928;8.548;2023-06-10T15:51:20;30.40;99.90
7572;DHT22;3827;49.928;8.548;2023-06-10T15:53:47;30.40;99.90
7572;DHT22;3827;49.928;8.548;2023-06-10T15:56:15;30.90;99.90
7572;DHT22;3827;49.928;8.548;2023-06-10T15:58:42;31.50;99.90
7572;DHT22;3827;49.928;8.548;2023-06-10T16:01:09;32.00;99.90
7572;DHT22;3827;49.928;8.548;2023-06-10T16:03:37;32.50;99.90
7572;DHT22;3827;49.928;8.548;2023-06-10T16:06:06;32.50;99.90
7572;DHT22;3827;49.928;8.548;2023-06-10T16:08:33;32.60;99.90
7572;DHT22;3827;49.928;8.548;2023-06-10T16:11:00;32.70;99.90